Time;durP1;ratioP1;P1;durP2;ratioP2;P2;SDS_P1;SDS_P2;PMS_P1;PMS_P2;Temp;Humidity;BMP_temperature;BMP_pressure;BME280_temperature;BME280_humidity;BME280_pressure;Samples;Min_cycle;Max_cycle;Signal;HPM_P1;HPM_P2
2022/11/29 00:01:09;;;;;;;107.43;103.13;;;8.60;95.10;;;;;;5031068;28;20083;-74
2022/11/29 00:03:34;;;;;;;107.40;103.10;;;8.60;95.00;;;;;;5030892;28;20496;-73
2022/11/29 00:06:18;;;;;;;106.68;102.38;;;8.60;95.00;;;;;;5030832;28;20160;-73
2022/11/29 00:08:44;;;;;;;105.30;101.03;;;8.60;95.10;;;;;;5031610;28;20033;-74
2022/11/29 00:12:10;;;;;;;107.30;102.97;;;8.60;95.00;;;;;;5030942;28;20029;-74
2022/11/29 00:13:59;;;;;;;107.18;102.88;;;8.60;95.00;;;;;;5030770;28;20038;-74
2022/11/29 00:16:25;;;;;;;109.15;104.78;;;8.70;95.00;;;;;;5030598;28;20543;-74
2022/11/29 00:18:51;;;;;;;107.18;102.88;;;8.70;95.00;;;;;;5029636;28;20048;-74
2022/11/29 00:21:16;;;;;;;109.68;105.28;;;8.60;95.00;;;;;;5029327;28;20037;-74
2022/11/29 00:23:42;;;;;;;108.80;104.45;;;8.60;95.00;;;;;;5029476;28;20037;-73
2022/11/29 00:26:08;;;;;;;109.68;105.30;;;8.60;95.20;;;;;;5030552;28;20426;-74
2022/11/29 00:28:35;;;;;;;108.40;104.10;;;8.60;95.00;;;;;;5062605;28;20053;-74
2022/11/29 00:31:16;;;;;;;105.63;101.43;;;8.60;95.00;;;;;;5062731;28;20033;-74
2022/11/29 00:33:42;;;;;;;105.15;100.95;;;8.60;95.10;;;;;;5030500;28;20030;-74
2022/11/29 00:36:08;;;;;;;104.25;99.97;;;8.60;95.10;;;;;;5030385;28;20646;-74
2022/11/29 00:38:33;;;;;;;104.18;99.97;;;8.60;95.10;;;;;;5029053;28;20065;-74
2022/11/29 00:40:59;;;;;;;104.25;100.05;;;8.60;95.10;;;;;;5045728;28;20033;-73
2022/11/29 00:43:24;;;;;;;102.68;98.57;;;8.60;95.00;;;;;;5030260;28;20052;-74
2022/11/29 00:45:50;;;;;;;101.53;97.50;;;8.60;95.10;;;;;;5028996;28;20061;-74
2022/11/29 00:48:16;;;;;;;100.25;96.25;;;8.60;95.10;;;;;;5062159;28;20025;-74
2022/11/29 00:50:42;;;;;;;104.35;100.25;;;8.60;95.00;;;;;;5062119;28;20033;-74
2022/11/29 00:53:07;;;;;;;105.65;101.45;;;8.60;95.00;;;;;;5030164;28;20033;-74
2022/11/29 00:55:33;;;;;;;101.45;97.45;;;8.60;95.00;;;;;;5029339;28;20112;-74
2022/11/29 00:57:59;;;;;;;103.72;99.60;;;8.60;95.00;;;;;;5028571;28;20063;-73
2022/11/29 01:00:24;;;;;;;102.43;98.32;;;8.50;95.00;;;;;;5029894;28;20083;-74
2022/11/29 01:02:50;;;;;;;100.63;96.63;;;8.50;95.00;;;;;;5028684;28;20394;-74
2022/11/29 01:05:16;;;;;;;103.28;99.18;;;8.50;95.00;;;;;;5029784;28;20025;-74
2022/11/29 01:07:41;;;;;;;101.57;97.57;;;8.50;95.00;;;;;;5029873;28;20109;-74
2022/11/29 01:10:07;;;;;;;101.18;97.18;;;8.50;95.00;;;;;;5030263;28;20044;-74
2022/11/29 01:12:38;;;;;;;100.22;96.22;;;8.50;95.00;;;;;;5028378;28;20116;-74
2022/11/29 01:15:05;;;;;;;101.07;97.07;;;8.50;95.00;;;;;;5029705;28;20022;-74
2022/11/29 01:17:33;;;;;;;96.75;92.85;;;8.50;95.00;;;;;;5029425;28;20049;-74
2022/11/29 01:19:59;;;;;;;100.50;96.50;;;8.50;95.00;;;;;;5029812;28;20033;-74
2022/11/29 01:22:25;;;;;;;103.85;99.75;;;8.60;95.00;;;;;;5029561;28;20041;-74
2022/11/29 01:24:50;;;;;;;100.88;96.88;;;8.50;95.00;;;;;;5028122;28;20034;-74
2022/11/29 01:27:16;;;;;;;103.95;99.85;;;8.60;95.00;;;;;;5029799;28;20025;-74
2022/11/29 01:29:42;;;;;;;106.65;102.45;;;8.60;95.00;;;;;;5061428;28;20127;-74
2022/11/29 01:32:08;;;;;;;102.57;98.55;;;8.60;95.00;;;;;;5029482;28;20047;-73
2022/11/29 01:34:33;;;;;;;104.95;100.80;;;8.60;95.00;;;;;;5061216;28;20040;-74
2022/11/29 01:36:59;;;;;;;104.82;100.65;;;8.60;95.00;;;;;;5028060;28;20034;-74
2022/11/29 01:39:25;;;;;;;104.47;100.38;;;8.60;95.00;;;;;;5029244;28;20040;-74
2022/11/29 01:41:50;;;;;;;106.22;102.03;;;8.60;95.00;;;;;;5029338;28;20077;-74
2022/11/29 01:44:16;;;;;;;102.97;98.88;;;8.60;95.00;;;;;;5029121;28;20037;-74
2022/11/29 01:46:44;;;;;;;102.60;98.55;;;8.60;95.00;;;;;;5060981;28;20527;-74
2022/11/29 01:49:21;;;;;;;105.05;100.93;;;8.60;95.00;;;;;;5029086;28;20025;-74
2022/11/29 01:51:54;;;;;;;101.90;97.90;;;8.60;95.00;;;;;;5061330;28;20036;-74
2022/11/29 01:54:20;;;;;;;103.50;99.43;;;8.50;95.00;;;;;;5028791;28;20111;-74
2022/11/29 01:56:48;;;;;;;104.78;100.68;;;8.50;94.90;;;;;;5028963;28;20596;-74
2022/11/29 01:59:19;;;;;;;103.15;99.05;;;8.40;94.90;;;;;;5060877;28;20340;-73
2022/11/29 02:01:44;;;;;;;103.72;99.63;;;8.30;94.90;;;;;;5060392;28;20030;-74
2022/11/29 02:04:11;;;;;;;102.63;98.60;;;8.20;94.90;;;;;;5060567;28;20478;-74
2022/11/29 02:06:37;;;;;;;;;;;8.10;94.90;;;;;;5028440;28;20104;-74
2022/11/29 02:09:03;;;;;;;105.87;101.67;;;8.10;94.90;;;;;;5028509;28;19924;-74
2022/11/29 02:11:55;;;;;;;111.10;106.70;;;8.10;94.90;;;;;;5028755;28;20478;-74
2022/11/29 02:14:59;;;;;;;111.53;107.13;;;8.00;94.90;;;;;;5060542;28;20037;-73
2022/11/29 02:17:46;;;;;;;110.68;106.28;;;7.90;94.90;;;;;;5019914;28;20497;-74
2022/11/29 02:20:33;;;;;;;110.47;106.07;;;7.80;94.90;;;;;;5028389;28;20033;-74
2022/11/29 02:23:29;;;;;;;113.15;108.65;;;7.80;95.00;;;;;;5028396;28;20256;-73
2022/11/29 02:26:18;;;;;;;105.43;101.22;;;7.80;95.10;;;;;;5028286;28;20030;-74
2022/11/29 02:29:04;;;;;;;108.72;104.38;;;7.80;95.00;;;;;;5028326;28;20053;-74
2022/11/29 02:32:04;;;;;;;109.35;104.95;;;7.80;94.90;;;;;;5028251;28;20036;-74
2022/11/29 02:34:49;;;;;;;109.63;105.22;;;7.80;94.90;;;;;;5020938;28;20090;-74
2022/11/29 02:37:47;;;;;;;112.85;108.30;;;7.70;94.90;;;;;;5028184;28;20033;-74
2022/11/29 02:40:37;;;;;;;116.68;111.97;;;7.60;94.90;;;;;;5026689;28;20032;-74
2022/11/29 02:43:38;;;;;;;117.75;112.97;;;7.60;94.90;;;;;;5059975;28;20390;-73
2022/11/29 02:46:23;;;;;;;118.65;113.85;;;7.50;94.90;;;;;;5019261;28;20041;-73
2022/11/29 02:49:13;;;;;;;117.97;113.20;;;7.50;94.90;;;;;;5028071;28;20432;-74
2022/11/29 02:52:06;;;;;;;116.30;111.60;;;7.40;94.90;;;;;;5027924;28;20053;-74
2022/11/29 02:54:44;;;;;;;115.75;111.05;;;7.30;94.90;;;;;;5028242;28;20142;-74
2022/11/29 02:57:32;;;;;;;112.85;108.25;;;7.30;94.90;;;;;;5027900;28;20156;-73
2022/11/29 03:00:18;;;;;;;115.72;111.05;;;7.20;94.90;;;;;;5027768;28;20432;-74
2022/11/29 03:03:04;;;;;;;113.50;108.90;;;7.20;95.00;;;;;;5027832;28;20033;-73
2022/11/29 03:05:56;;;;;;;112.77;108.20;;;7.10;95.00;;;;;;5027672;28;20025;-74
2022/11/29 03:09:00;;;;;;;114.32;109.72;;;7.10;95.00;;;;;;5027757;28;20048;-72
2022/11/29 03:11:48;;;;;;;113.13;108.45;;;7.10;95.00;;;;;;5005333;28;20034;-72
2022/11/29 03:14:27;;;;;;;110.07;105.63;;;7.00;94.90;;;;;;5005603;28;20403;-72
2022/11/29 03:17:03;;;;;;;108.78;104.38;;;7.00;94.90;;;;;;5020778;28;20048;-72
2022/11/29 03:19:52;;;;;;;112.07;107.57;;;7.00;94.90;;;;;;5027446;28;20079;-72
2022/11/29 03:22:32;;;;;;;108.63;104.22;;;7.00;94.90;;;;;;5027468;28;20033;-72
2022/11/29 03:25:21;;;;;;;114.35;109.75;;;7.10;95.00;;;;;;5059396;28;20028;-72
2022/11/29 03:28:11;;;;;;;110.28;105.78;;;7.10;95.00;;;;;;5059242;28;20441;-72
2022/11/29 03:30:41;;;;;;;110.25;105.75;;;7.20;95.00;;;;;;5027431;28;20084;-72
2022/11/29 03:33:35;;;;;;;112.28;107.78;;;7.30;95.00;;;;;;5027646;28;20027;-72
2022/11/29 03:36:25;;;;;;;112.32;107.78;;;7.30;94.90;;;;;;5026130;28;20030;-72
2022/11/29 03:38:57;;;;;;;112.50;108.00;;;7.40;94.90;;;;;;5027374;28;20111;-72
2022/11/29 03:41:47;;;;;;;114.57;109.97;;;7.40;94.80;;;;;;5027314;28;20040;-72
2022/11/29 03:44:24;;;;;;;113.35;108.75;;;7.40;94.90;;;;;;5027303;28;20013;-72
2022/11/29 03:46:59;;;;;;;;;;;7.40;94.80;;;;;;5027791;28;20030;-72
2022/11/29 03:49:27;;;;;;;111.10;106.60;;;7.40;94.80;;;;;;5027398;28;19912;-72
2022/11/29 03:52:11;;;;;;;110.82;106.43;;;7.30;94.80;;;;;;5059185;28;20486;-72
2022/11/29 03:54:55;;;;;;;114.45;109.85;;;7.20;94.80;;;;;;5027214;28;20025;-73
2022/11/29 03:57:35;;;;;;;112.90;108.30;;;7.20;94.90;;;;;;5026195;28;20040;-73
2022/11/29 04:00:06;;;;;;;112.38;107.88;;;7.10;94.90;;;;;;5027216;28;20359;-73
2022/11/29 04:03:02;;;;;;;112.00;107.50;;;7.20;94.90;;;;;;5027328;28;20036;-73
2022/11/29 04:06:02;;;;;;;112.10;107.60;;;7.20;94.90;;;;;;5058973;28;20025;-73
2022/11/29 04:08:54;;;;;;;106.05;101.75;;;7.10;94.90;;;;;;5010269;28;20513;-73
2022/11/29 04:11:54;;;;;;;108.53;104.13;;;7.10;94.90;;;;;;5027288;28;20038;-73
2022/11/29 04:14:32;;;;;;;109.47;105.07;;;7.10;94.90;;;;;;5025719;28;20033;-73
2022/11/29 04:17:19;;;;;;;104.35;100.15;;;7.20;95.00;;;;;;5026843;28;20064;-73
2022/11/29 04:20:22;;;;;;;112.82;108.28;;;7.20;95.00;;;;;;5027124;28;20486;-73
2022/11/29 04:22:56;;;;;;;106.60;102.30;;;7.30;95.00;;;;;;5058982;28;20030;-72
2022/11/29 04:25:35;;;;;;;107.75;103.43;;;7.30;95.00;;;;;;5058860;28;20029;-73
2022/11/29 04:28:06;;;;;;;106.78;102.47;;;7.40;95.00;;;;;;5026881;28;20026;-73
2022/11/29 04:31:02;;;;;;;108.63;104.22;;;7.40;94.90;;;;;;5028026;28;20026;-73
2022/11/29 04:33:46;;;;;;;111.70;107.20;;;7.40;94.90;;;;;;5022565;28;20064;-73
2022/11/29 04:36:29;;;;;;;110.18;105.78;;;7.40;94.90;;;;;;5030309;28;20049;-72
2022/11/29 04:39:33;;;;;;;109.38;104.97;;;7.40;94.80;;;;;;5030428;28;20079;-73
2022/11/29 04:42:23;;;;;;;109.82;105.43;;;7.40;94.80;;;;;;5030484;28;20029;-72
2022/11/29 04:45:05;;;;;;;109.63;105.22;;;7.40;94.80;;;;;;5030145;28;20029;-72
2022/11/29 04:47:51;;;;;;;108.75;104.35;;;7.30;94.80;;;;;;5062311;28;20021;-73
2022/11/29 04:50:37;;;;;;;109.47;105.07;;;7.20;94.70;;;;;;5030320;28;20068;-73
2022/11/29 04:53:12;;;;;;;111.72;107.25;;;7.10;94.70;;;;;;5028759;28;20078;-73
2022/11/29 04:56:02;;;;;;;112.10;107.60;;;7.00;95.00;;;;;;5029749;28;20191;-73
2022/11/29 04:59:03;;;;;;;108.90;104.53;;;7.00;94.90;;;;;;5061970;28;20249;-73
2022/11/29 05:02:26;;;;;;;105.85;101.57;;;7.00;94.90;;;;;;5027046;28;20094;-73
2022/11/29 05:05:01;;;;;;;105.05;100.85;;;7.00;95.00;;;;;;5007566;28;20164;-73
2022/11/29 05:07:47;;;;;;;109.25;104.85;;;7.10;95.00;;;;;;5007649;28;20022;-73
2022/11/29 05:10:28;;;;;;;109.82;105.43;;;7.20;95.00;;;;;;5024489;28;20030;-73
2022/11/29 05:13:44;;;;;;;109.65;105.25;;;7.20;94.90;;;;;;5028563;28;20029;-73
2022/11/29 05:16:31;;;;;;;109.35;104.95;;;7.20;94.90;;;;;;5007501;28;20457;-73
2022/11/29 05:19:00;;;;;;;108.38;104.03;;;7.20;94.90;;;;;;5029719;28;20037;-72
2022/11/29 05:21:51;;;;;;;104.93;100.72;;;7.20;94.90;;;;;;5061410;28;20033;-72
2022/11/29 05:25:12;;;;;;;105.53;101.32;;;7.20;95.00;;;;;;5061584;28;20048;-73
2022/11/29 05:27:56;;;;;;;106.10;101.80;;;7.20;95.00;;;;;;5020961;28;20039;-73
2022/11/29 05:30:29;;;;;;;105.43;101.22;;;7.20;94.90;;;;;;5029480;28;20022;-73
2022/11/29 05:33:03;;;;;;;105.70;101.50;;;7.10;94.90;;;;;;5029438;28;20029;-73
2022/11/29 05:35:44;;;;;;;102.72;98.63;;;7.10;94.90;;;;;;5029333;28;20048;-73
2022/11/29 05:38:28;;;;;;;103.25;99.07;;;7.10;95.00;;;;;;5029267;28;20051;-73
2022/11/29 05:40:56;;;;;;;104.32;100.13;;;7.20;95.10;;;;;;5028931;28;20047;-73
2022/11/29 05:43:31;;;;;;;106.32;102.03;;;7.20;95.10;;;;;;5061115;28;20105;-73
2022/11/29 05:46:25;;;;;;;103.43;99.22;;;7.30;95.10;;;;;;5060863;28;20075;-73
2022/11/29 05:49:16;;;;;;;106.90;102.60;;;7.30;95.00;;;;;;5026768;28;20083;-73
2022/11/29 05:52:19;;;;;;;105.45;101.25;;;7.30;94.80;;;;;;5029100;28;20091;-73
2022/11/29 05:55:08;;;;;;;104.47;100.28;;;7.30;94.80;;;;;;5022081;28;20470;-73
2022/11/29 05:58:21;;;;;;;105.35;101.15;;;7.20;94.80;;;;;;5028778;28;20025;-73
2022/11/29 06:00:58;;;;;;;97.82;93.93;;;7.10;94.80;;;;;;5006528;28;20087;-73
2022/11/29 06:03:42;;;;;;;99.93;95.95;;;7.00;94.80;;;;;;5025896;28;20056;-73
2022/11/29 06:06:39;;;;;;;98.63;94.72;;;7.00;94.90;;;;;;5028685;28;20059;-73
2022/11/29 06:09:11;;;;;;;93.47;89.77;;;6.90;94.90;;;;;;5028693;28;20018;-73
2022/11/29 06:11:51;;;;;;;98.05;94.15;;;6.90;94.90;;;;;;5028685;28;20268;-73
2022/11/29 06:14:35;;;;;;;96.53;92.72;;;6.80;95.00;;;;;;5060691;28;20120;-73
2022/11/29 06:17:24;;;;;;;100.22;96.22;;;6.80;95.00;;;;;;5060298;28;20046;-73
2022/11/29 06:20:18;;;;;;;99.28;95.38;;;6.90;95.10;;;;;;5028312;28;20075;-74
2022/11/29 06:22:47;;;;;;;98.32;94.43;;;6.90;95.10;;;;;;5028597;28;20566;-74
2022/11/29 06:25:36;;;;;;;103.13;99.03;;;6.90;95.10;;;;;;5060199;28;20028;-73
2022/11/29 06:28:58;;;;;;;99.32;95.43;;;7.00;95.10;;;;;;5028253;28;20021;-73
2022/11/29 06:31:38;;;;;;;101.53;97.53;;;7.00;95.10;;;;;;5005855;28;20042;-74
2022/11/29 06:34:09;;;;;;;97.00;93.20;;;7.00;95.20;;;;;;5006009;28;20601;-73
2022/11/29 06:36:53;;;;;;;96.65;92.85;;;7.10;95.20;;;;;;5015644;28;20436;-74
2022/11/29 06:39:19;;;;;;;97.57;93.78;;;7.10;95.10;;;;;;5028131;28;20395;-73
2022/11/29 06:41:45;;;;;;;98.45;94.60;;;7.20;95.10;;;;;;5028372;28;20026;-74
2022/11/29 06:44:11;;;;;;;;;;;7.20;95.10;;;;;;5027161;28;20389;-74
2022/11/29 06:47:00;;;;;;;94.22;90.55;;;7.20;95.10;;;;;;5027973;28;19905;-75
2022/11/29 06:49:48;;;;;;;92.10;88.50;;;7.20;95.10;;;;;;5028040;28;20311;-75
2022/11/29 06:52:25;;;;;;;93.05;89.45;;;7.30;95.10;;;;;;5027839;28;20025;-76
2022/11/29 06:55:16;;;;;;;92.05;88.45;;;7.30;95.10;;;;;;5027324;28;20060;-76
2022/11/29 06:58:00;;;;;;;85.20;81.90;;;7.40;95.10;;;;;;5027664;28;20036;-76
2022/11/29 07:00:35;;;;;;;89.22;85.72;;;7.40;95.00;;;;;;5027610;28;20022;-76
2022/11/29 07:03:05;;;;;;;85.57;82.20;;;7.50;95.00;;;;;;5027491;28;20033;-76
2022/11/29 07:05:35;;;;;;;87.40;84.00;;;7.50;95.00;;;;;;5027517;28;20488;-76
2022/11/29 07:08:10;;;;;;;91.30;87.70;;;7.50;94.90;;;;;;5027499;28;20021;-76
2022/11/29 07:10:39;;;;;;;89.50;86.00;;;7.50;95.00;;;;;;5027300;28;20046;-76
2022/11/29 07:13:06;;;;;;;88.95;85.45;;;7.40;95.00;;;;;;5059073;28;20021;-74
2022/11/29 07:15:32;;;;;;;89.95;86.45;;;7.50;95.10;;;;;;5059371;28;20090;-73
2022/11/29 07:18:25;;;;;;;88.93;85.43;;;7.60;95.10;;;;;;5059248;28;20037;-73
2022/11/29 07:21:20;;;;;;;89.25;85.75;;;7.70;95.10;;;;;;5027453;28;20077;-75
2022/11/29 07:24:15;;;;;;;87.63;84.22;;;7.80;95.10;;;;;;5026048;28;20021;-76
2022/11/29 07:27:14;;;;;;;89.68;86.18;;;7.80;95.00;;;;;;5018738;28;20520;-75
2022/11/29 07:30:09;;;;;;;84.75;81.45;;;7.80;95.00;;;;;;5026914;28;20025;-75
2022/11/29 07:33:07;;;;;;;91.15;87.55;;;7.80;95.00;;;;;;5024386;28;20116;-75
2022/11/29 07:35:59;;;;;;;92.90;89.30;;;7.90;95.10;;;;;;5027418;28;20389;-75
2022/11/29 07:38:44;;;;;;;93.47;89.88;;;7.90;95.10;;;;;;5027137;28;20014;-75
2022/11/29 07:41:47;;;;;;;93.82;90.20;;;8.00;95.10;;;;;;5026987;28;20025;-75
2022/11/29 07:44:30;;;;;;;95.32;91.63;;;8.00;95.10;;;;;;5027182;28;20025;-75
2022/11/29 07:46:55;;;;;;;89.82;86.32;;;8.10;95.20;;;;;;5027270;28;20029;-75
2022/11/29 07:49:21;;;;;;;92.65;89.05;;;8.10;95.20;;;;;;5026817;28;20025;-71
2022/11/29 07:51:47;;;;;;;94.10;90.47;;;8.20;95.10;;;;;;5025788;28;20063;-76
2022/11/29 07:54:16;;;;;;;90.22;86.72;;;8.30;95.20;;;;;;5027167;28;20494;-76
2022/11/29 07:56:42;;;;;;;91.65;88.15;;;8.30;95.10;;;;;;5028921;28;20083;-76
2022/11/29 07:59:11;;;;;;;90.35;86.85;;;8.30;95.10;;;;;;5025920;28;20041;-76
2022/11/29 08:01:38;;;;;;;87.70;84.30;;;8.30;95.10;;;;;;5025521;28;20091;-76
2022/11/29 08:04:05;;;;;;;87.05;83.65;;;8.30;95.10;;;;;;5025859;28;20029;-75
2022/11/29 08:06:30;;;;;;;87.65;84.28;;;8.40;95.10;;;;;;5029641;28;20390;-76
2022/11/29 08:08:57;;;;;;;88.45;85.05;;;8.40;95.10;;;;;;5030812;28;20025;-76
2022/11/29 08:11:23;;;;;;;89.47;85.97;;;8.40;95.10;;;;;;5062949;28;20394;-76
2022/11/29 08:13:49;;;;;;;;;;;8.50;95.10;;;;;;5029841;28;20040;-75
2022/11/29 08:16:16;;;;;;;89.65;86.15;;;8.50;95.10;;;;;;5028996;28;19905;-75
2022/11/29 08:18:42;;;;;;;90.80;87.25;;;8.50;95.10;;;;;;5062542;28;20053;-76
2022/11/29 08:21:08;;;;;;;90.00;86.50;;;8.50;95.10;;;;;;5030677;28;20074;-76
2022/11/29 08:23:34;;;;;;;89.93;86.43;;;8.60;95.10;;;;;;5030652;28;20125;-76
2022/11/29 08:26:01;;;;;;;86.45;83.05;;;8.60;95.20;;;;;;5029178;28;20422;-76
2022/11/29 08:28:26;;;;;;;90.90;87.40;;;8.70;95.20;;;;;;5030888;28;20029;-75
2022/11/29 08:31:03;;;;;;;89.35;85.78;;;8.70;95.20;;;;;;5030319;28;20095;-75
2022/11/29 08:33:29;;;;;;;;;;;8.70;95.20;;;;;;5030818;28;20049;-75
2022/11/29 08:35:55;;;;;;;82.25;78.95;;;8.80;95.20;;;;;;5028837;28;19924;-75
2022/11/29 08:38:21;;;;;;;;;;;8.80;95.20;;;;;;5031108;28;20032;-75
2022/11/29 08:40:47;;;;;;;84.90;81.60;;;8.80;95.20;;;;;;5061935;28;20003;-76
2022/11/29 08:43:12;;;;;;;83.32;80.03;;;8.80;95.10;;;;;;5030117;28;20105;-75
2022/11/29 08:45:38;;;;;;;83.03;79.72;;;8.90;95.20;;;;;;5061882;28;20033;-75
2022/11/29 08:48:04;;;;;;;82.88;79.57;;;8.90;95.20;;;;;;5028714;28;20536;-75
2022/11/29 08:50:30;;;;;;;82.00;78.70;;;8.90;95.20;;;;;;5029630;28;20060;-75
2022/11/29 08:56:01;;;;;;;83.03;79.70;;;9.00;95.20;;;;;;5029507;28;20040;-76
2022/11/29 08:58:27;;;;;;;86.85;83.40;;;9.00;95.20;;;;;;5029714;28;20105;-76
2022/11/29 09:00:54;;;;;;;83.15;79.85;;;9.10;95.30;;;;;;5029401;28;20033;-76
2022/11/29 09:06:13;;;;;;;84.07;80.75;;;9.20;95.30;;;;;;5029858;28;20102;-76
2022/11/29 09:08:42;;;;;;;77.82;74.72;;;9.20;95.20;;;;;;5029251;28;20076;-76
2022/11/29 09:11:12;;;;;;;81.28;78.07;;;9.20;95.20;;;;;;5029533;28;20521;-76
2022/11/29 09:13:43;;;;;;;79.70;76.60;;;9.20;95.20;;;;;;5027913;28;20492;-76
2022/11/29 09:16:12;;;;;;;82.07;78.85;;;9.20;95.20;;;;;;5057779;28;20029;-75
2022/11/29 09:18:38;;;;;;;85.70;82.30;;;9.10;95.20;;;;;;5029025;28;20042;-76
2022/11/29 09:21:09;;;;;;;82.22;78.93;;;9.10;95.20;;;;;;5028697;28;20021;-77
2022/11/29 09:23:35;;;;;;;77.72;74.63;;;9.20;95.20;;;;;;5028538;28;20415;-71
2022/11/29 09:26:02;;;;;;;81.32;78.13;;;9.20;95.20;;;;;;5027213;28;20103;-77
2022/11/29 09:28:28;;;;;;;80.82;77.63;;;9.20;95.20;;;;;;5028805;28;20029;-76
2022/11/29 09:30:53;;;;;;;80.65;77.45;;;9.20;95.20;;;;;;5019283;28;20026;-77
2022/11/29 09:33:19;;;;;;;83.55;80.25;;;9.30;95.20;;;;;;5022069;28;20041;-77
2022/11/29 09:35:45;;;;;;;80.75;77.55;;;9.30;95.30;;;;;;5028271;28;20030;-76
2022/11/29 09:38:12;;;;;;;80.18;77.03;;;9.40;95.30;;;;;;5020667;28;20486;-76
2022/11/29 09:40:46;;;;;;;78.95;75.85;;;9.40;95.30;;;;;;5018431;28;20060;-76
2022/11/29 09:43:17;;;;;;;82.35;79.15;;;9.50;95.30;;;;;;5022567;28;20029;-76
2022/11/29 09:45:47;;;;;;;76.82;73.72;;;9.50;95.30;;;;;;5021001;28;20025;-76
2022/11/29 09:48:21;;;;;;;82.85;79.55;;;9.60;95.40;;;;;;5018138;28;20018;-76
2022/11/29 09:50:56;;;;;;;83.53;80.22;;;9.70;95.40;;;;;;5017091;28;20032;-76
2022/11/29 09:53:42;;;;;;;78.15;75.05;;;9.80;95.40;;;;;;5019507;28;20026;-77
2022/11/29 09:56:30;;;;;;;83.73;80.43;;;9.90;95.40;;;;;;5018953;28;20484;-76
2022/11/29 09:59:00;;;;;;;75.05;72.05;;;9.90;95.30;;;;;;5020278;28;20256;-76
2022/11/29 10:01:30;;;;;;;80.35;77.15;;;10.00;95.30;;;;;;5016723;28;20359;-76
2022/11/29 10:04:13;;;;;;;77.78;74.68;;;10.00;95.30;;;;;;5019986;28;20117;-76
2022/11/29 10:06:49;;;;;;;79.13;76.03;;;10.00;95.30;;;;;;5017508;28;20394;-76
2022/11/29 10:09:35;;;;;;;77.85;74.85;;;10.10;95.40;;;;;;5014573;28;20018;-77
2022/11/29 10:12:22;;;;;;;77.70;74.70;;;10.10;95.40;;;;;;5021924;28;20017;-77
2022/11/29 10:15:07;;;;;;;80.95;77.75;;;10.10;95.40;;;;;;5021875;28;20030;-76
2022/11/29 10:17:43;;;;;;;77.85;74.85;;;10.20;95.40;;;;;;5016701;28;20122;-77
2022/11/29 10:20:24;;;;;;;79.07;75.97;;;10.20;95.40;;;;;;5062082;28;20044;-77
2022/11/29 10:23:00;;;;;;;76.28;73.28;;;10.30;95.40;;;;;;5029334;28;20045;-76
2022/11/29 10:25:35;;;;;;;73.15;70.25;;;10.30;95.40;;;;;;5025298;28;20045;-76
2022/11/29 10:28:02;;;;;;;78.53;75.50;;;10.40;95.40;;;;;;5014938;28;20018;-76
2022/11/29 10:30:32;;;;;;;74.18;71.28;;;10.40;95.40;;;;;;5020182;28;20026;-76
2022/11/29 10:32:59;;;;;;;76.70;73.70;;;10.40;95.40;;;;;;5009409;28;20386;-76
2022/11/29 10:35:25;;;;;;;78.78;75.68;;;10.40;95.40;;;;;;5016289;28;20469;-74
2022/11/29 10:37:55;;;;;;;74.38;71.47;;;10.50;95.50;;;;;;5027351;28;20021;-76
2022/11/29 10:40:32;;;;;;;75.10;72.20;;;10.50;95.50;;;;;;5030076;28;20051;-77
2022/11/29 10:43:00;;;;;;;70.82;68.03;;;10.60;95.50;;;;;;5017095;28;20076;-76
2022/11/29 10:45:33;;;;;;;68.05;65.35;;;10.60;95.50;;;;;;5025514;28;20060;-76
2022/11/29 10:48:06;;;;;;;66.28;63.67;;;10.60;95.50;;;;;;5015289;28;20466;-76
2022/11/29 10:50:34;;;;;;;64.72;62.22;;;10.70;95.50;;;;;;5008516;28;20034;-76
2022/11/29 10:53:05;;;;;;;67.68;65.07;;;10.70;95.50;;;;;;5012313;28;20111;-76
2022/11/29 10:55:44;;;;;;;63.42;60.95;;;10.80;95.50;;;;;;5061301;28;20021;-76
2022/11/29 10:58:18;;;;;;;57.65;55.45;;;10.80;95.50;;;;;;5014583;28;20394;-76
2022/11/29 11:01:06;;;;;;;60.40;58.10;;;10.90;95.50;;;;;;5015415;28;20048;-76
2022/11/29 11:03:52;;;;;;;60.55;58.25;;;10.90;95.50;;;;;;5021492;28;20406;-76
2022/11/29 11:06:37;;;;;;;53.78;51.67;;;10.90;95.60;;;;;;5021083;28;20041;-76
2022/11/29 11:09:35;;;;;;;47.80;46.00;;;10.90;95.50;;;;;;5028425;28;20083;-76
2022/11/29 11:12:15;;;;;;;52.05;50.05;;;10.90;95.50;;;;;;5017206;28;20481;-76
2022/11/29 11:14:42;;;;;;;45.22;43.53;;;10.90;95.60;;;;;;5011180;28;20026;-76
2022/11/29 11:17:31;;;;;;;50.15;48.25;;;11.00;95.60;;;;;;5021210;28;20509;-76
2022/11/29 11:20:20;;;;;;;42.40;40.80;;;11.10;95.60;;;;;;5029468;28;20318;-77
2022/11/29 11:23:04;;;;;;;41.33;39.72;;;11.10;95.50;;;;;;5029181;28;20064;-76
2022/11/29 11:25:33;;;;;;;38.35;36.90;;;11.10;95.50;;;;;;5045062;28;20022;-76
2022/11/29 11:28:33;;;;;;;32.03;30.83;;;11.20;95.50;;;;;;5009677;28;20109;-76
2022/11/29 11:31:07;;;;;;;38.92;37.42;;;11.20;95.60;;;;;;5009372;28;20034;-76
2022/11/29 11:33:52;;;;;;;39.58;38.08;;;11.20;95.60;;;;;;5009182;28;20033;-76
2022/11/29 11:36:23;;;;;;;28.13;27.02;;;11.30;95.60;;;;;;5008159;28;20497;-75
2022/11/29 11:39:08;;;;;;;28.85;27.75;;;11.40;95.50;;;;;;5041467;28;20045;-76
2022/11/29 11:44:51;;;;;;;28.85;27.75;;;11.40;95.60;;;;;;5013479;28;20389;-77
2022/11/29 11:47:26;;;;;;;25.90;24.90;;;11.60;96.00;;;;;;5023604;28;20033;-76
2022/11/29 11:50:01;;;;;;;16.73;16.02;;;11.90;96.00;;;;;;5032061;28;20030;-76
2022/11/29 11:52:34;;;;;;;19.30;18.50;;;12.10;96.00;;;;;;5060698;28;20026;-76
2022/11/29 11:55:06;;;;;;;14.75;14.15;;;12.30;95.90;;;;;;5023216;28;20430;-76
2022/11/29 11:57:32;;;;;;;11.40;10.90;;;12.30;95.90;;;;;;5022499;28;20104;-75
2022/11/29 11:59:59;;;;;;;13.45;12.85;;;12.30;95.70;;;;;;5032507;28;20030;-76
2022/11/29 12:02:37;;;;;;;15.02;14.43;;;12.20;95.70;;;;;;5032594;28;20018;-76
2022/11/29 12:05:10;;;;;;;13.43;12.82;;;12.20;95.80;;;;;;5024265;28;20505;-76
2022/11/29 12:07:47;;;;;;;15.07;14.48;;;12.20;95.90;;;;;;5021392;28;20075;-77
2022/11/29 12:10:21;;;;;;;12.88;12.27;;;12.20;95.90;;;;;;5032413;28;20033;-69
2022/11/29 12:12:49;;;;;;;12.95;12.35;;;12.20;95.80;;;;;;5037243;28;20017;-76
2022/11/29 12:15:42;;;;;;;13.77;13.18;;;12.10;95.70;;;;;;5051944;28;20029;-76
2022/11/29 12:18:20;;;;;;;15.70;15.02;;;12.00;95.70;;;;;;5028810;28;20060;-76
2022/11/29 12:20:57;;;;;;;14.13;13.52;;;11.90;95.70;;;;;;5028330;28;20021;-75
2022/11/29 12:24:09;;;;;;;15.45;14.77;;;11.80;95.70;;;;;;5029871;28;20025;-75
2022/11/29 12:26:40;;;;;;;15.25;14.63;;;11.70;95.80;;;;;;5023551;28;20061;-75
2022/11/29 12:29:14;;;;;;;16.83;16.13;;;11.70;95.80;;;;;;5030546;28;20017;-76
2022/11/29 12:32:06;;;;;;;14.57;13.98;;;11.60;95.80;;;;;;5030109;28;20314;-75
2022/11/29 12:34:55;;;;;;;16.30;15.60;;;11.60;95.80;;;;;;5030928;28;20472;-75
2022/11/29 12:37:55;;;;;;;14.98;14.38;;;11.60;95.80;;;;;;5020709;28;20072;-75
2022/11/29 12:40:46;;;;;;;14.75;14.15;;;11.50;95.70;;;;;;5063683;28;20044;-75
2022/11/29 12:43:48;;;;;;;12.48;11.90;;;11.40;95.70;;;;;;5032217;28;20032;-74
2022/11/29 12:46:22;;;;;;;13.75;13.15;;;11.30;95.70;;;;;;5028395;28;20040;-76
2022/11/29 12:49:02;;;;;;;12.82;12.23;;;11.30;95.70;;;;;;5031263;28;20028;-69
2022/11/29 12:51:57;;;;;;;11.75;11.25;;;11.20;95.70;;;;;;5030572;28;20106;-75
2022/11/29 12:54:58;;;;;;;13.32;12.73;;;11.20;95.80;;;;;;5031326;28;20033;-75
2022/11/29 12:57:32;;;;;;;11.82;11.32;;;11.10;95.80;;;;;;5063202;28;20029;-75
2022/11/29 13:00:07;;;;;;;10.80;10.30;;;11.10;95.80;;;;;;5063011;28;20442;-76
2022/11/29 13:02:51;;;;;;;11.25;10.75;;;11.10;95.80;;;;;;5031167;28;20465;-75
2022/11/29 13:05:44;;;;;;;12.13;11.63;;;11.10;95.80;;;;;;5031369;28;20032;-74
2022/11/29 13:08:18;;;;;;;12.48;11.90;;;11.00;95.80;;;;;;5030916;28;20028;-77
2022/11/29 13:11:07;;;;;;;12.32;11.77;;;11.00;95.90;;;;;;5063631;28;20476;-75
2022/11/29 13:13:37;;;;;;;13.05;12.45;;;11.10;95.90;;;;;;5029311;28;20030;-75
2022/11/29 13:16:25;;;;;;;12.73;12.13;;;11.10;95.80;;;;;;5030772;28;20052;-74
2022/11/29 13:18:53;;;;;;;;;;;11.00;95.80;;;;;;5054246;28;20480;-74
2022/11/29 13:21:37;;;;;;;13.52;12.93;;;11.00;95.70;;;;;;5029779;28;19967;-74
2022/11/29 13:24:12;;;;;;;13.88;13.27;;;11.00;95.70;;;;;;5028517;28;20037;-74
2022/11/29 13:26:40;;;;;;;10.77;10.27;;;11.00;95.70;;;;;;5028132;28;20029;-74
2022/11/29 13:29:14;;;;;;;8.90;8.50;;;11.00;95.70;;;;;;5050600;28;20026;-75
2022/11/29 13:31:41;;;;;;;10.57;10.07;;;10.90;95.60;;;;;;5028846;28;20105;-75